Time;durP1;ratioP1;P1;durP2;ratioP2;P2;SDS_P1;SDS_P2;PMS_P1;PMS_P2;Temp;Humidity;BMP_temperature;BMP_pressure;BME280_temperature;BME280_humidity;BME280_pressure;Samples;Min_cycle;Max_cycle;Signal;HPM_P1;HPM_P2
2022/08/07 00:00:36;;;;;;;15.13;8.98;;;23.20;99.90;;;;;;4970740;28;20190;-78
2022/08/07 00:03:03;;;;;;;14.32;8.85;;;23.20;99.90;;;;;;4966612;28;20229;-78
2022/08/07 00:05:29;;;;;;;11.20;8.30;;;23.20;99.90;;;;;;4947049;28;20775;-78
2022/08/07 00:07:56;;;;;;;13.70;8.68;;;23.20;99.90;;;;;;4949971;28;20194;-78
2022/08/07 00:10:22;;;;;;;15.23;9.20;;;23.20;99.90;;;;;;4955068;28;20290;-78
2022/08/07 00:12:51;;;;;;;13.73;9.27;;;23.10;99.90;;;;;;4966029;28;20201;-78
2022/08/07 00:15:18;;;;;;;12.93;8.52;;;23.10;99.90;;;;;;4949638;28;20186;-78
2022/08/07 00:17:45;;;;;;;15.48;8.57;;;23.10;99.90;;;;;;4966308;28;20190;-78
2022/08/07 00:20:12;;;;;;;14.63;7.95;;;23.10;99.90;;;;;;4963673;28;20198;-78
2022/08/07 00:22:39;;;;;;;17.75;8.63;;;23.00;99.90;;;;;;4968448;28;20276;-78
2022/08/07 00:25:07;;;;;;;12.70;8.52;;;23.00;99.90;;;;;;4948956;28;20201;-78
2022/08/07 00:27:35;;;;;;;13.77;8.07;;;22.90;99.90;;;;;;4964972;28;20273;-78
2022/08/07 00:30:05;;;;;;;14.52;8.88;;;23.00;99.90;;;;;;4964757;28;20202;-78
2022/08/07 00:32:31;;;;;;;13.70;8.35;;;23.00;99.90;;;;;;4967003;28;20265;-78
2022/08/07 00:34:57;;;;;;;11.50;8.17;;;22.90;99.90;;;;;;4968599;28;20256;-78
2022/08/07 00:37:25;;;;;;;11.23;8.05;;;23.00;99.90;;;;;;4969777;28;20198;-78
2022/08/07 00:39:55;;;;;;;14.60;8.52;;;22.90;99.90;;;;;;4974243;28;20187;-78
2022/08/07 00:42:21;;;;;;;13.75;8.18;;;23.00;99.90;;;;;;4981100;28;20190;-78
2022/08/07 00:44:48;;;;;;;13.35;8.07;;;22.90;99.90;;;;;;4985914;28;20214;-78
2022/08/07 00:47:15;;;;;;;13.60;8.53;;;23.00;99.90;;;;;;4970536;28;20197;-78
2022/08/07 00:49:42;;;;;;;11.53;8.30;;;23.00;99.90;;;;;;4967447;28;20222;-78
2022/08/07 00:52:09;;;;;;;11.23;7.77;;;23.00;99.90;;;;;;4966795;28;20186;-78
2022/08/07 00:54:35;;;;;;;11.38;8.07;;;23.00;99.90;;;;;;4969941;28;20203;-78
2022/08/07 00:57:01;;;;;;;12.27;8.48;;;23.00;99.90;;;;;;4969911;28;20190;-78
2022/08/07 00:59:28;;;;;;;12.20;8.17;;;22.90;99.90;;;;;;4966784;28;20198;-78
2022/08/07 01:01:54;;;;;;;15.07;9.10;;;22.90;99.90;;;;;;4985143;28;20639;-78
2022/08/07 01:04:21;;;;;;;20.20;9.40;;;22.80;99.90;;;;;;4985106;28;20194;-78
2022/08/07 01:06:48;;;;;;;14.25;8.35;;;22.80;99.90;;;;;;4969816;28;20212;-78
2022/08/07 01:09:15;;;;;;;15.38;8.32;;;22.70;99.90;;;;;;4971771;28;20264;-78
2022/08/07 01:11:41;;;;;;;16.40;8.90;;;22.80;99.90;;;;;;4969114;28;20186;-78
2022/08/07 01:14:08;;;;;;;12.38;8.73;;;22.80;99.90;;;;;;4970545;28;20190;-78
2022/08/07 01:16:36;;;;;;;10.55;7.90;;;22.80;99.90;;;;;;4952623;28;20225;-78
2022/08/07 01:19:04;;;;;;;12.55;8.55;;;22.80;99.90;;;;;;4952106;28;20562;-78
2022/08/07 01:21:30;;;;;;;18.00;9.18;;;22.80;99.90;;;;;;4966183;28;20658;-78
2022/08/07 01:24:00;;;;;;;11.10;8.57;;;22.80;99.90;;;;;;4975679;28;20209;-78
2022/08/07 01:26:27;;;;;;;13.48;8.93;;;22.70;99.90;;;;;;4952379;28;20674;-78
2022/08/07 01:28:54;;;;;;;12.20;7.97;;;22.80;99.90;;;;;;4969666;28;20642;-78
2022/08/07 01:31:30;;;;;;;10.32;8.65;;;22.80;99.90;;;;;;4968800;28;20269;-78
2022/08/07 01:33:59;;;;;;;16.87;8.83;;;22.80;99.90;;;;;;4970494;28;20178;-78
2022/08/07 01:36:28;;;;;;;12.07;8.73;;;22.80;99.90;;;;;;4956144;28;20211;-78
2022/08/07 01:38:58;;;;;;;13.83;8.63;;;22.80;99.90;;;;;;4963344;28;20202;-78
2022/08/07 01:41:25;;;;;;;15.43;8.55;;;22.80;99.90;;;;;;4963934;28;20249;-78
2022/08/07 01:43:52;;;;;;;14.57;8.85;;;22.80;99.90;;;;;;4966611;28;20240;-78
2022/08/07 01:46:20;;;;;;;13.55;9.00;;;22.80;99.90;;;;;;4969225;28;20198;-78
2022/08/07 01:48:48;;;;;;;14.35;8.82;;;22.80;99.90;;;;;;4968175;28;20677;-78
2022/08/07 01:51:20;;;;;;;18.37;9.23;;;22.80;99.90;;;;;;4966708;28;20778;-78
2022/08/07 01:53:57;;;;;;;12.83;8.93;;;22.80;99.90;;;;;;4968182;28;20260;-78
2022/08/07 01:56:49;;;;;;;13.77;8.95;;;22.80;99.90;;;;;;4965305;28;20175;-77
2022/08/07 02:00:00;;;;;;;14.68;9.02;;;22.70;99.90;;;;;;4955165;28;20206;-78
2022/08/07 02:02:37;;;;;;;13.10;8.40;;;22.80;99.90;;;;;;4926738;28;20194;-78
2022/08/07 02:05:10;;;;;;;14.15;9.38;;;22.80;99.90;;;;;;4969535;28;20292;-78
2022/08/07 02:07:48;;;;;;;14.82;9.00;;;22.80;99.90;;;;;;4953806;28;20718;-78
2022/08/07 02:10:18;;;;;;;13.68;8.88;;;22.80;99.90;;;;;;4969044;28;20206;-78
2022/08/07 02:12:48;;;;;;;13.23;9.07;;;22.80;99.90;;;;;;4948102;28;20182;-78
2022/08/07 02:15:19;;;;;;;13.85;9.05;;;22.80;99.90;;;;;;4969932;28;20249;-78
2022/08/07 02:17:50;;;;;;;10.00;8.25;;;22.80;99.90;;;;;;4952282;28;20185;-78
2022/08/07 02:20:17;;;;;;;12.35;8.60;;;22.80;99.90;;;;;;4968642;28;20686;-78
2022/08/07 02:22:46;;;;;;;12.73;8.98;;;22.80;99.90;;;;;;4968863;28;20300;-78
2022/08/07 02:25:17;;;;;;;13.60;8.60;;;22.80;99.90;;;;;;4968625;28;20243;-78
2022/08/07 02:27:47;;;;;;;16.30;8.77;;;22.80;99.90;;;;;;4984403;28;20186;-78
2022/08/07 02:30:14;;;;;;;14.27;9.17;;;22.80;99.90;;;;;;4972770;28;20222;-78
2022/08/07 02:32:42;;;;;;;12.57;9.13;;;22.80;99.90;;;;;;4956428;28;20206;-78
2022/08/07 02:35:10;;;;;;;13.65;8.77;;;22.70;99.90;;;;;;4969517;28;20178;-78
2022/08/07 02:37:40;;;;;;;14.05;8.95;;;22.70;99.90;;;;;;4969436;28;20178;-78
2022/08/07 02:40:10;;;;;;;11.45;8.63;;;22.70;99.90;;;;;;4969514;28;20257;-77
2022/08/07 02:42:37;;;;;;;12.90;9.32;;;22.60;99.90;;;;;;4963534;28;20186;-78
2022/08/07 02:45:09;;;;;;;16.33;9.27;;;22.60;99.90;;;;;;4958925;28;20214;-78
2022/08/07 02:47:36;;;;;;;11.03;8.20;;;22.60;99.90;;;;;;4967937;28;20190;-78
2022/08/07 02:50:04;;;;;;;10.32;8.38;;;22.60;99.90;;;;;;4951658;28;20701;-78
2022/08/07 02:53:23;;;;;;;14.30;9.13;;;22.60;99.90;;;;;;4968257;28;20235;-78
2022/08/07 02:55:52;;;;;;;14.73;8.52;;;22.60;99.90;;;;;;4938638;28;20277;-78
2022/08/07 02:58:21;;;;;;;14.75;8.93;;;22.60;99.90;;;;;;4965633;28;20194;-78
2022/08/07 03:00:51;;;;;;;15.43;9.07;;;22.60;99.90;;;;;;4966331;28;20201;-77
2022/08/07 03:03:20;;;;;;;12.35;8.50;;;22.60;99.90;;;;;;4960279;28;20193;-78
2022/08/07 03:05:51;;;;;;;15.93;8.73;;;22.60;99.90;;;;;;4965487;28;20198;-78
2022/08/07 03:08:18;;;;;;;11.27;8.65;;;22.70;99.90;;;;;;4966237;28;20186;-78
2022/08/07 03:10:46;;;;;;;11.40;8.33;;;22.70;99.90;;;;;;4965285;28;20532;-78
2022/08/07 03:13:15;;;;;;;13.02;8.60;;;22.60;99.90;;;;;;4951653;28;20591;-78
2022/08/07 03:15:42;;;;;;;16.48;8.60;;;22.60;99.90;;;;;;4966559;28;20190;-78
2022/08/07 03:18:09;;;;;;;13.27;9.15;;;22.60;99.90;;;;;;4966914;28;20191;-78
2022/08/07 03:20:36;;;;;;;12.63;8.77;;;22.60;99.90;;;;;;4966003;28;20194;-78
2022/08/07 03:23:03;;;;;;;9.77;8.37;;;22.60;99.90;;;;;;4966447;28;20197;-77
2022/08/07 03:25:34;;;;;;;12.05;9.48;;;22.60;99.90;;;;;;4946722;28;20651;-78
2022/08/07 03:28:03;;;;;;;13.53;9.17;;;22.70;99.90;;;;;;4960763;28;20215;-77
2022/08/07 03:30:32;;;;;;;20.75;9.27;;;22.70;99.90;;;;;;4967360;28;20198;-77
2022/08/07 03:33:01;;;;;;;15.95;9.63;;;22.70;99.90;;;;;;4950486;28;20193;-78
2022/08/07 03:35:29;;;;;;;14.20;8.67;;;22.70;99.90;;;;;;4967340;28;20304;-77
2022/08/07 03:38:02;;;;;;;13.57;9.43;;;22.70;99.90;;;;;;4966414;28;20190;-78
2022/08/07 03:40:29;;;;;;;13.18;8.77;;;22.70;99.90;;;;;;4962484;28;20190;-77
2022/08/07 03:42:56;;;;;;;11.37;9.30;;;22.70;99.90;;;;;;4966022;28;20202;-78
2022/08/07 03:45:27;;;;;;;17.33;9.50;;;22.70;99.90;;;;;;4976279;28;20238;-77
2022/08/07 03:47:53;;;;;;;11.00;8.90;;;22.70;99.90;;;;;;4974037;28;20198;-78
2022/08/07 03:50:21;;;;;;;13.90;9.02;;;22.70;99.90;;;;;;4963325;28;20574;-78
2022/08/07 03:52:50;;;;;;;14.88;9.63;;;22.70;99.90;;;;;;4965186;28;20549;-78
2022/08/07 03:55:17;;;;;;;15.17;9.00;;;22.80;99.90;;;;;;4964759;28;20721;-78
2022/08/07 03:57:44;;;;;;;13.18;9.07;;;22.80;99.90;;;;;;4964041;28;20182;-78
2022/08/07 04:00:13;;;;;;;16.10;9.00;;;22.80;99.90;;;;;;4961962;28;20681;-78
2022/08/07 04:02:41;;;;;;;14.17;9.00;;;22.80;99.90;;;;;;4972398;28;20194;-78
2022/08/07 04:05:08;;;;;;;13.23;9.90;;;22.80;99.90;;;;;;4952093;28;20186;-78
2022/08/07 04:07:35;;;;;;;13.40;9.30;;;22.80;99.90;;;;;;4947930;29;20190;-78
2022/08/07 04:10:02;;;;;;;15.90;8.50;;;22.90;99.90;;;;;;4968550;28;20284;-77
2022/08/07 04:12:30;;;;;;;13.32;8.95;;;22.90;99.90;;;;;;4962804;28;20201;-78
2022/08/07 04:14:59;;;;;;;12.63;8.97;;;22.90;99.90;;;;;;4970545;28;20275;-78
2022/08/07 04:17:26;;;;;;;14.30;8.55;;;23.00;99.90;;;;;;4970955;28;21065;-78
2022/08/07 04:19:52;;;;;;;10.93;8.80;;;23.00;99.90;;;;;;4953878;28;20276;-77
2022/08/07 04:22:18;;;;;;;11.38;8.20;;;23.00;99.90;;;;;;4969844;28;20202;-77
2022/08/07 04:24:47;;;;;;;18.08;9.40;;;23.00;99.90;;;;;;4973537;28;20658;-77
2022/08/07 04:27:14;;;;;;;12.73;8.88;;;23.00;99.90;;;;;;4970618;28;20190;-78
2022/08/07 04:29:43;;;;;;;15.70;9.18;;;23.10;99.90;;;;;;4974664;28;20221;-77
2022/08/07 04:32:11;;;;;;;14.88;9.43;;;23.10;99.90;;;;;;4968444;28;20637;-78
2022/08/07 04:34:38;;;;;;;14.40;9.40;;;23.10;99.90;;;;;;4971831;28;20248;-77
2022/08/07 04:37:05;;;;;;;16.13;8.77;;;23.20;99.90;;;;;;4969471;28;20194;-78
2022/08/07 04:39:31;;;;;;;15.30;8.90;;;23.20;99.90;;;;;;4969777;28;20329;-78
2022/08/07 04:42:02;;;;;;;12.45;8.73;;;23.20;99.90;;;;;;4956235;28;20539;-78
2022/08/07 04:44:28;;;;;;;17.05;9.25;;;23.30;99.90;;;;;;4968420;28;20210;-78
2022/08/07 04:47:10;;;;;;;13.38;9.32;;;23.50;99.90;;;;;;4972140;28;20224;-77
2022/08/07 04:50:04;;;;;;;13.48;8.43;;;23.50;99.90;;;;;;4969245;28;20217;-78
2022/08/07 04:53:00;;;;;;;17.85;9.05;;;23.60;99.90;;;;;;4969045;28;20190;-78
2022/08/07 04:55:56;;;;;;;16.45;8.52;;;23.70;99.90;;;;;;4968436;28;20210;-78
2022/08/07 04:58:37;;;;;;;17.52;8.02;;;23.70;99.90;;;;;;4969102;28;20237;-77
2022/08/07 05:01:20;;;;;;;14.18;9.13;;;23.80;99.90;;;;;;4968917;28;20571;-78
2022/08/07 05:04:21;;;;;;;15.32;8.32;;;23.90;99.90;;;;;;4971509;28;20638;-77
2022/08/07 05:06:54;;;;;;;12.15;8.25;;;24.00;99.90;;;;;;4966626;28;20316;-78
2022/08/07 05:09:41;;;;;;;11.32;8.52;;;24.00;99.90;;;;;;4967754;28;20218;-77
2022/08/07 05:12:14;;;;;;;12.57;8.93;;;24.10;99.90;;;;;;4952250;28;20189;-77
2022/08/07 05:14:47;;;;;;;14.27;8.15;;;24.20;99.90;;;;;;4952571;28;20193;-78
2022/08/07 05:17:19;;;;;;;11.30;8.18;;;24.30;99.90;;;;;;4952952;28;20229;-77
2022/08/07 05:19:50;;;;;;;14.65;7.72;;;24.30;99.90;;;;;;4967653;28;20244;-77
2022/08/07 05:22:22;;;;;;;9.95;7.18;;;24.30;99.90;;;;;;4968248;28;20201;-78
2022/08/07 05:24:50;;;;;;;13.38;8.20;;;24.40;99.90;;;;;;4966540;28;20197;-77
2022/08/07 05:27:20;;;;;;;12.80;8.07;;;24.50;99.90;;;;;;4970114;28;20183;-77
2022/08/07 05:29:48;;;;;;;14.70;8.07;;;24.50;99.90;;;;;;4965024;28;20515;-77
2022/08/07 05:32:19;;;;;;;11.23;6.95;;;24.50;99.90;;;;;;4951211;29;20187;-78
2022/08/07 05:34:48;;;;;;;17.38;7.13;;;24.60;99.90;;;;;;4952424;28;20544;-78
2022/08/07 05:37:17;;;;;;;15.48;7.70;;;24.70;99.90;;;;;;4952889;28;20194;-78
2022/08/07 05:39:45;;;;;;;11.77;6.45;;;24.70;99.90;;;;;;4961810;28;20506;-77
2022/08/07 05:42:13;;;;;;;12.40;7.15;;;24.70;99.90;;;;;;4965637;28;20190;-77
2022/08/07 05:44:40;;;;;;;11.05;6.88;;;24.90;99.90;;;;;;4968842;28;20688;-78
2022/08/07 05:47:08;;;;;;;12.35;7.00;;;24.90;99.90;;;;;;4967494;28;20202;-78
2022/08/07 05:49:36;;;;;;;10.20;6.38;;;25.00;99.90;;;;;;4962043;28;20256;-78
2022/08/07 05:52:03;;;;;;;14.90;7.03;;;25.00;99.90;;;;;;4952360;28;20354;-78
2022/08/07 05:54:30;;;;;;;15.50;6.85;;;25.10;99.90;;;;;;4968950;28;20190;-78
2022/08/07 05:56:58;;;;;;;11.38;6.40;;;25.10;99.90;;;;;;4968818;28;20655;-78
2022/08/07 05:59:25;;;;;;;15.50;6.72;;;25.20;99.90;;;;;;4954038;28;20198;-77
2022/08/07 06:01:55;;;;;;;13.90;6.40;;;25.30;99.90;;;;;;4967249;28;20542;-77
2022/08/07 06:04:24;;;;;;;11.60;6.00;;;25.30;99.90;;;;;;4969358;28;20225;-78
2022/08/07 06:06:51;;;;;;;15.52;6.50;;;25.30;99.90;;;;;;4968239;28;20344;-78
2022/08/07 06:09:18;;;;;;;10.60;6.13;;;25.50;99.90;;;;;;4950925;28;20244;-78
2022/08/07 06:11:45;;;;;;;12.93;6.60;;;25.50;99.90;;;;;;4968839;28;20298;-78
2022/08/07 06:14:12;;;;;;;13.85;6.32;;;25.50;99.90;;;;;;4961425;28;20218;-78
2022/08/07 06:16:39;;;;;;;15.90;6.80;;;25.60;99.90;;;;;;4951508;28;20273;-78
2022/08/07 06:19:07;;;;;;;18.73;5.90;;;25.60;99.90;;;;;;4963075;28;20763;-77
2022/08/07 06:21:35;;;;;;;12.60;6.80;;;25.70;99.90;;;;;;4964910;28;20229;-78
2022/08/07 06:24:03;;;;;;;10.95;5.95;;;25.70;99.90;;;;;;4974496;28;20262;-78
2022/08/07 06:26:30;;;;;;;9.68;6.13;;;25.80;99.90;;;;;;4967676;28;20189;-78
2022/08/07 06:28:58;;;;;;;9.50;5.95;;;25.80;99.90;;;;;;4950374;28;20292;-77
2022/08/07 06:31:25;;;;;;;12.05;6.50;;;25.80;99.90;;;;;;4965295;28;20186;-77
2022/08/07 06:33:51;;;;;;;9.30;5.85;;;25.80;99.90;;;;;;4955768;28;20186;-77
2022/08/07 06:36:18;;;;;;;11.88;5.45;;;25.80;99.90;;;;;;4966033;28;20221;-78
2022/08/07 06:38:45;;;;;;;14.73;5.53;;;25.90;99.90;;;;;;4967105;28;20194;-78
2022/08/07 06:41:48;;;;;;;10.73;5.85;;;26.00;99.90;;;;;;4968956;28;20182;-78
2022/08/07 06:44:16;;;;;;;9.85;5.00;;;26.10;99.90;;;;;;4967465;28;20213;-78
2022/08/07 06:46:43;;;;;;;6.78;4.95;;;26.20;99.90;;;;;;4961065;28;20325;-78
2022/08/07 06:49:13;;;;;;;13.15;5.20;;;26.30;99.90;;;;;;4968970;28;20254;-77
2022/08/07 06:51:42;;;;;;;10.85;5.30;;;26.30;99.90;;;;;;4968747;28;20506;-77
2022/08/07 06:54:11;;;;;;;9.52;5.20;;;26.30;99.90;;;;;;4951080;28;20232;-77
2022/08/07 06:56:39;;;;;;;9.25;4.82;;;26.40;99.90;;;;;;4961404;28;20237;-77
2022/08/07 06:59:20;;;;;;;10.43;4.93;;;26.40;99.90;;;;;;4951345;28;20221;-78
2022/08/07 07:01:49;;;;;;;12.57;5.63;;;26.40;99.90;;;;;;4966388;28;20268;-78
2022/08/07 07:04:16;;;;;;;10.43;5.05;;;26.40;99.90;;;;;;4949371;28;20734;-78
2022/08/07 07:06:46;;;;;;;13.23;5.40;;;26.50;99.90;;;;;;4950987;28;20222;-77
2022/08/07 07:09:29;;;;;;;8.32;4.88;;;26.50;99.90;;;;;;4933615;28;20206;-77
2022/08/07 07:12:21;;;;;;;7.25;4.90;;;26.50;99.90;;;;;;4967605;28;20203;-77
2022/08/07 07:15:13;;;;;;;10.65;4.82;;;26.60;99.90;;;;;;4968336;28;20268;-77
2022/08/07 07:18:02;;;;;;;7.72;4.82;;;26.60;99.90;;;;;;4948101;29;20191;-77
2022/08/07 07:21:07;;;;;;;7.18;4.85;;;26.70;99.90;;;;;;4948036;29;20178;-78
2022/08/07 07:23:33;;;;;;;9.65;4.68;;;26.70;99.90;;;;;;4957567;28;20560;-77
2022/08/07 07:26:06;;;;;;;7.38;4.70;;;26.80;99.90;;;;;;4977285;28;20199;-77
2022/08/07 07:29:02;;;;;;;11.95;5.38;;;26.80;99.90;;;;;;4966778;28;20694;-77
2022/08/07 07:31:45;;;;;;;12.40;4.82;;;27.00;99.90;;;;;;4942875;28;20273;-77
2022/08/07 07:34:20;;;;;;;9.40;5.00;;;27.20;99.90;;;;;;4968074;28;20650;-78
2022/08/07 07:36:48;;;;;;;8.70;4.60;;;27.40;99.90;;;;;;4963409;28;20189;-78
2022/08/07 07:39:17;;;;;;;9.27;4.80;;;27.50;99.90;;;;;;4961072;28;20193;-78
2022/08/07 07:41:49;;;;;;;10.60;5.07;;;27.60;99.90;;;;;;4963661;28;20285;-78
2022/08/07 07:44:21;;;;;;;9.48;4.82;;;27.60;99.90;;;;;;4977653;28;20300;-78
2022/08/07 07:46:50;;;;;;;7.78;5.05;;;27.60;99.90;;;;;;4966034;28;20305;-78
2022/08/07 07:49:20;;;;;;;9.35;5.10;;;27.70;99.90;;;;;;4962645;28;20207;-78
2022/08/07 07:51:49;;;;;;;7.00;4.55;;;27.70;99.90;;;;;;4964248;28;20211;-78
2022/08/07 07:54:18;;;;;;;7.95;4.57;;;27.80;99.90;;;;;;4948171;28;20237;-78
2022/08/07 07:56:48;;;;;;;10.10;4.53;;;27.80;99.90;;;;;;4968067;28;20189;-78
2022/08/07 07:59:16;;;;;;;8.15;5.07;;;28.00;99.90;;;;;;4967395;28;20303;-78
2022/08/07 08:01:47;;;;;;;11.05;5.00;;;28.10;99.90;;;;;;4962092;28;20182;-78
2022/08/07 08:04:17;;;;;;;6.68;4.57;;;28.20;99.90;;;;;;4959758;28;20194;-77
2022/08/07 08:06:46;;;;;;;8.07;4.78;;;28.10;99.90;;;;;;4961549;28;20623;-78
2022/08/07 08:09:19;;;;;;;9.15;4.80;;;28.20;99.90;;;;;;4972536;28;20233;-78
2022/08/07 08:11:46;;;;;;;8.82;4.78;;;28.20;99.90;;;;;;4965702;28;20262;-78
2022/08/07 08:14:15;;;;;;;11.40;4.60;;;28.30;99.90;;;;;;4949973;28;20186;-78
2022/08/07 08:16:45;;;;;;;8.60;4.45;;;28.30;99.90;;;;;;4965726;28;20218;-78
2022/08/07 08:19:18;;;;;;;7.47;4.80;;;28.30;99.90;;;;;;4967338;28;20333;-78
2022/08/07 08:27:41;;;;;;;7.72;4.57;;;28.60;99.90;;;;;;4966489;28;20633;-78
2022/08/07 08:30:11;;;;;;;11.18;4.60;;;28.80;99.90;;;;;;4972999;28;20213;-78
2022/08/07 08:32:59;;;;;;;12.38;4.55;;;28.90;99.90;;;;;;4965940;28;20554;-78
2022/08/07 08:35:28;;;;;;;10.73;4.10;;;29.00;99.90;;;;;;4964723;28;20199;-78
2022/08/07 08:38:04;;;;;;;11.43;4.47;;;29.20;99.90;;;;;;4950288;28;20182;-78
2022/08/07 08:40:37;;;;;;;18.55;4.82;;;29.20;99.90;;;;;;4968033;28;20938;-78
2022/08/07 08:43:30;;;;;;;12.07;4.85;;;29.10;99.90;;;;;;4967185;28;20191;-78
2022/08/07 08:46:17;;;;;;;7.15;4.38;;;29.20;99.90;;;;;;4967271;28;20210;-78
2022/08/07 08:49:17;;;;;;;9.63;4.43;;;29.30;99.90;;;;;;4967621;28;20236;-78
2022/08/07 08:52:02;;;;;;;11.57;4.55;;;29.50;99.90;;;;;;4966794;28;20546;-78
2022/08/07 08:54:48;;;;;;;13.10;4.75;;;29.50;99.90;;;;;;4950084;28;20205;-78
2022/08/07 08:57:57;;;;;;;12.77;4.25;;;29.60;99.90;;;;;;4969556;28;20190;-78
2022/08/07 09:00:29;;;;;;;9.77;4.30;;;29.50;99.90;;;;;;4930467;28;20209;-78
2022/08/07 09:03:32;;;;;;;9.60;4.40;;;29.40;99.90;;;;;;4953218;28;20189;-78
2022/08/07 09:06:21;;;;;;;11.95;4.50;;;29.60;99.90;;;;;;4968649;28;20194;-78
2022/08/07 09:08:54;;;;;;;8.52;4.30;;;29.80;99.90;;;;;;4969246;28;20624;-78
2022/08/07 09:11:57;;;;;;;9.48;4.55;;;30.10;99.90;;;;;;4970313;28;20191;-78
2022/08/07 09:14:47;;;;;;;7.95;3.95;;;30.10;99.90;;;;;;4968881;28;20217;-78
2022/08/07 09:17:43;;;;;;;13.55;4.45;;;30.20;99.90;;;;;;4952149;28;21726;-78
2022/08/07 09:20:41;;;;;;;9.38;3.80;;;30.10;99.90;;;;;;4953100;28;20322;-78
2022/08/07 09:23:46;;;;;;;14.20;4.28;;;30.00;99.90;;;;;;4977121;28;20189;-77
2022/08/07 09:26:36;;;;;;;9.68;4.43;;;29.90;99.90;;;;;;4951737;28;20204;-77
2022/08/07 09:29:34;;;;;;;5.28;3.60;;;29.80;99.90;;;;;;4988432;28;20724;-77
2022/08/07 09:32:48;;;;;;;11.25;4.10;;;30.00;99.90;;;;;;4949263;29;20209;-78
2022/08/07 09:35:32;;;;;;;11.65;4.22;;;30.10;99.90;;;;;;4930394;29;20191;-78
2022/08/07 09:38:12;;;;;;;9.85;4.32;;;30.00;99.90;;;;;;4949780;29;20190;-78
2022/08/07 09:41:14;;;;;;;11.77;4.40;;;30.30;99.90;;;;;;4970877;28;20245;-78
2022/08/07 09:44:32;;;;;;;12.20;4.50;;;30.60;99.90;;;;;;4952768;28;20208;-78
2022/08/07 09:47:36;;;;;;;10.57;3.97;;;30.60;99.90;;;;;;4927191;28;20285;-78
2022/08/07 09:50:52;;;;;;;12.52;4.20;;;30.50;99.90;;;;;;4969238;28;20212;-78
2022/08/07 09:53:23;;;;;;;9.07;4.28;;;30.20;99.90;;;;;;4969794;28;20186;-78
2022/08/07 09:56:22;;;;;;;5.93;4.15;;;30.40;99.90;;;;;;4953364;28;20190;-78
2022/08/07 09:58:51;;;;;;;11.18;3.92;;;30.60;99.90;;;;;;4951042;28;20705;-78
2022/08/07 10:01:56;;;;;;;9.23;4.40;;;30.60;99.90;;;;;;4952712;28;20198;-78
2022/08/07 10:05:05;;;;;;;8.27;4.07;;;30.60;99.90;;;;;;4970449;28;20189;-78
2022/08/07 10:07:49;;;;;;;12.40;4.65;;;30.80;99.90;;;;;;4952354;28;20273;-78
2022/08/07 10:10:37;;;;;;;11.52;4.60;;;31.10;99.90;;;;;;4985173;28;20306;-78
2022/08/07 10:13:39;;;;;;;10.18;4.47;;;31.10;99.90;;;;;;4969475;28;20182;-78
2022/08/07 10:16:51;;;;;;;7.35;3.80;;;31.20;99.90;;;;;;4967281;28;20208;-78
2022/08/07 10:19:39;;;;;;;8.55;3.88;;;31.40;99.90;;;;;;4961491;28;20615;-77
2022/08/07 10:22:54;;;;;;;8.10;4.20;;;31.50;99.90;;;;;;4968652;28;20186;-77
2022/08/07 10:26:22;;;;;;;9.18;3.72;;;31.60;99.90;;;;;;4949750;29;20260;-77
2022/08/07 10:29:25;;;;;;;9.35;3.90;;;31.70;99.90;;;;;;4950275;29;20544;-77
2022/08/07 10:32:27;;;;;;;11.30;4.13;;;31.80;99.90;;;;;;4968977;28;20193;-77
2022/08/07 10:35:25;;;;;;;7.35;3.92;;;31.90;99.90;;;;;;4963847;28;20201;-77
2022/08/07 10:38:11;;;;;;;7.43;3.80;;;31.60;99.90;;;;;;4945370;28;20741;-77
2022/08/07 10:40:51;;;;;;;7.38;3.30;;;31.60;99.90;;;;;;4952187;28;20209;-77
2022/08/07 10:43:29;;;;;;;11.65;4.35;;;31.70;99.90;;;;;;4950461;28;20649;-77
2022/08/07 10:46:04;;;;;;;6.63;3.60;;;31.70;99.90;;;;;;4969489;28;20197;-77
2022/08/07 10:49:09;;;;;;;9.75;3.67;;;31.40;99.90;;;;;;4969134;28;20701;-77
2022/08/07 10:52:26;;;;;;;6.57;3.58;;;31.20;99.90;;;;;;4951605;28;20193;-77
2022/08/07 10:55:19;;;;;;;11.02;3.97;;;31.40;99.90;;;;;;4946101;28;20620;-77
2022/08/07 10:58:18;;;;;;;9.15;3.90;;;31.50;99.90;;;;;;4961730;28;20188;-77
2022/08/07 11:01:32;;;;;;;10.15;4.40;;;31.50;99.90;;;;;;4967463;28;20571;-77
2022/08/07 11:04:09;;;;;;;10.73;3.92;;;31.20;99.90;;;;;;4969222;28;20174;-77
2022/08/07 11:07:13;;;;;;;10.85;4.30;;;31.40;99.90;;;;;;4968342;28;20906;-77
2022/08/07 11:09:56;;;;;;;8.50;3.80;;;31.40;99.90;;;;;;4968915;28;20206;-77
2022/08/07 11:12:51;;;;;;;11.63;3.85;;;31.20;99.90;;;;;;4967056;28;20194;-77
2022/08/07 11:15:24;;;;;;;8.07;3.72;;;31.00;99.90;;;;;;4969275;28;20221;-77
2022/08/07 11:18:08;;;;;;;7.38;4.40;;;31.20;99.90;;;;;;4950913;28;20186;-78
2022/08/07 11:20:53;;;;;;;9.07;4.57;;;31.20;99.90;;;;;;4967359;28;20603;-77
2022/08/07 11:23:52;;;;;;;9.15;3.90;;;31.20;99.90;;;;;;4976577;28;20193;-77
2022/08/07 11:27:06;;;;;;;14.73;4.32;;;31.20;99.90;;;;;;4954811;28;20194;-77
2022/08/07 11:30:19;;;;;;;9.70;4.72;;;31.00;99.90;;;;;;4966785;28;20201;-77
2022/08/07 11:33:00;;;;;;;8.80;4.25;;;31.00;99.90;;;;;;4933716;29;20929;-77
2022/08/07 11:36:05;;;;;;;9.88;4.50;;;31.00;99.90;;;;;;4948845;29;20644;-77
2022/08/07 11:39:31;;;;;;;10.77;4.53;;;31.00;99.90;;;;;;4948226;29;20186;-77
2022/08/07 11:42:35;;;;;;;10.95;4.13;;;31.10;99.90;;;;;;4954262;28;20582;-77
2022/08/07 11:45:55;;;;;;;12.38;3.92;;;31.10;99.90;;;;;;4964951;28;20214;-77
2022/08/07 11:48:47;;;;;;;11.18;4.55;;;30.90;99.90;;;;;;4964766;28;20189;-77
2022/08/07 11:51:37;;;;;;;7.13;3.85;;;30.80;99.90;;;;;;4967934;28;20651;-77
2022/08/07 11:54:47;;;;;;;9.10;3.88;;;30.90;99.90;;;;;;4968102;28;20182;-77
2022/08/07 11:57:32;;;;;;;7.70;4.30;;;31.00;99.90;;;;;;4969142;28;20714;-78
2022/08/07 12:00:12;;;;;;;9.85;3.83;;;31.00;99.90;;;;;;4967620;28;20194;-77
2022/08/07 12:03:10;;;;;;;9.02;3.70;;;30.90;99.90;;;;;;4966722;28;20217;-77
2022/08/07 12:06:04;;;;;;;8.20;4.13;;;30.90;99.90;;;;;;4934498;28;20945;-77
2022/08/07 12:08:41;;;;;;;6.90;3.95;;;30.90;99.90;;;;;;4968036;28;20617;-77
2022/08/07 12:11:23;;;;;;;8.18;4.20;;;30.80;99.90;;;;;;4965858;28;20182;-77
2022/08/07 12:14:26;;;;;;;9.32;4.40;;;30.80;99.90;;;;;;4967968;28;20693;-77
2022/08/07 12:17:10;;;;;;;6.00;3.97;;;30.80;99.90;;;;;;4951320;28;20197;-77
2022/08/07 12:19:44;;;;;;;6.90;3.85;;;30.70;99.90;;;;;;4969015;28;20186;-77
2022/08/07 12:22:40;;;;;;;8.73;3.67;;;30.60;99.90;;;;;;4968285;28;20182;-77
2022/08/07 12:25:56;;;;;;;8.23;3.72;;;30.40;99.90;;;;;;4964248;28;20183;-77
2022/08/07 12:28:28;;;;;;;8.80;4.00;;;30.40;99.90;;;;;;4947983;29;20524;-77
2022/08/07 12:31:05;;;;;;;8.07;4.05;;;30.50;99.90;;;;;;4960260;28;20212;-77
2022/08/07 12:33:34;;;;;;;7.85;4.20;;;30.50;99.90;;;;;;4972039;28;20208;-77
2022/08/07 12:36:06;;;;;;;6.07;4.00;;;30.40;99.90;;;;;;4972201;28;20182;-77
2022/08/07 12:38:34;;;;;;;7.10;4.10;;;30.40;99.90;;;;;;4971050;28;20186;-77
2022/08/07 12:41:02;;;;;;;5.20;3.53;;;30.40;99.90;;;;;;4970716;28;20191;-77
2022/08/07 12:43:34;;;;;;;8.27;3.90;;;30.40;99.90;;;;;;4970256;28;20213;-77
2022/08/07 12:46:25;;;;;;;6.85;3.72;;;30.30;99.90;;;;;;4981419;28;20189;-77
2022/08/07 12:49:33;;;;;;;6.78;3.75;;;30.10;99.90;;;;;;4989633;28;20929;-77
2022/08/07 12:52:14;;;;;;;8.43;4.30;;;30.10;99.90;;;;;;4989429;28;20197;-77
2022/08/07 12:55:06;;;;;;;7.72;3.83;;;30.10;99.90;;;;;;4990289;28;20556;-78
2022/08/07 12:57:38;;;;;;;6.05;3.60;;;30.10;99.90;;;;;;4990014;28;20769;-77
2022/08/07 13:00:11;;;;;;;6.82;3.78;;;30.10;99.90;;;;;;4989881;28;20757;-77
2022/08/07 13:03:05;;;;;;;8.10;3.90;;;30.10;99.90;;;;;;4970343;28;20232;-77
2022/08/07 13:06:14;;;;;;;7.50;3.78;;;30.10;99.90;;;;;;4954721;28;20190;-77
2022/08/07 13:09:11;;;;;;;7.25;3.95;;;30.10;99.90;;;;;;4968223;28;20228;-77
2022/08/07 13:12:02;;;;;;;11.05;3.67;;;30.00;99.90;;;;;;4969854;28;20869;-77
2022/08/07 13:15:04;;;;;;;7.63;3.90;;;30.00;99.90;;;;;;4971343;28;20221;-77
2022/08/07 13:18:26;;;;;;;9.68;3.22;;;30.00;99.90;;;;;;4954309;28;20201;-77
2022/08/07 13:21:09;;;;;;;10.40;3.78;;;29.90;99.90;;;;;;4969419;28;20213;-77
2022/08/07 13:24:26;;;;;;;6.30;3.72;;;29.80;99.90;;;;;;4972492;28;20209;-77
2022/08/07 13:27:19;;;;;;;10.25;3.70;;;29.90;99.90;;;;;;4967279;28;20190;-77
2022/08/07 13:30:16;;;;;;;5.70;3.70;;;29.90;99.90;;;;;;4971248;28;20229;-77
2022/08/07 13:33:08;;;;;;;8.43;3.85;;;29.80;99.90;;;;;;4951115;29;20524;-77
2022/08/07 13:36:00;;;;;;;7.25;3.45;;;29.80;99.90;;;;;;4950526;29;20190;-77
2022/08/07 13:38:45;;;;;;;5.28;3.58;;;29.70;99.90;;;;;;4934650;29;20596;-77
2022/08/07 13:41:33;;;;;;;6.43;3.70;;;29.80;99.90;;;;;;4970820;28;20182;-77
2022/08/07 13:44:03;;;;;;;6.32;3.60;;;29.70;99.90;;;;;;4961110;28;20206;-77